createdAt,value
2023-04-16T00:00:41.565Z,7.4823
2023-04-16T00:01:49.736Z,7.6022
2023-04-16T00:02:57.821Z,7.4607
2023-04-16T00:04:06.011Z,7.3224
2023-04-16T00:05:13.780Z,7.3592
2023-04-16T00:06:21.885Z,7.3554
2023-04-16T00:07:29.912Z,7.3188
2023-04-16T00:08:37.933Z,7.3058
2023-04-16T00:09:46.036Z,7.5090
2023-04-16T00:10:54.162Z,7.5715
2023-04-16T00:12:02.180Z,7.5273
2023-04-16T00:13:10.254Z,7.5921
2023-04-16T00:14:18.303Z,7.6312
2023-04-16T00:15:26.334Z,7.6257
2023-04-16T00:16:34.700Z,7.5391
2023-04-16T00:17:42.426Z,7.4393
2023-04-16T00:18:50.628Z,7.3527
2023-04-16T00:19:58.611Z,7.4014
2023-04-16T00:21:06.693Z,7.5282
2023-04-16T00:22:14.934Z,7.5572
2023-04-16T00:23:22.707Z,7.5382
2023-04-16T00:24:30.880Z,7.6467
2023-04-16T00:25:38.932Z,7.6396
2023-04-16T00:26:46.999Z,7.5206
2023-04-16T00:27:55.137Z,7.3531
2023-04-16T00:29:03.045Z,7.4443
2023-04-16T00:30:11.278Z,7.2841
2023-04-16T00:31:19.286Z,7.5517
2023-04-16T00:32:27.233Z,7.6297
2023-04-16T00:33:35.425Z,7.5202
2023-04-16T00:34:43.354Z,7.5032
2023-04-16T00:35:51.501Z,7.6961
2023-04-16T00:36:59.582Z,7.5275
2023-04-16T00:38:07.640Z,7.4739
2023-04-16T00:39:15.684Z,7.3312
2023-04-16T00:40:23.663Z,7.2194
2023-04-16T00:41:31.835Z,7.2452
2023-04-16T00:42:40.019Z,7.3859
2023-04-16T00:43:47.925Z,7.3352
2023-04-16T00:44:56.298Z,7.4907
2023-04-16T00:46:04.132Z,7.5729
2023-04-16T00:47:12.231Z,7.6097
2023-04-16T00:48:20.227Z,7.6503
2023-04-16T00:49:28.475Z,7.6940
2023-04-16T00:50:36.343Z,7.5698
2023-04-16T00:51:44.593Z,7.4716
2023-04-16T00:52:52.433Z,7.4548
2023-04-16T00:54:00.547Z,7.3028
2023-04-16T00:55:08.595Z,7.3184
2023-04-16T00:56:17.791Z,7.4964
2023-04-16T00:57:24.763Z,7.6436
2023-04-16T00:58:32.802Z,7.6696
2023-04-16T00:59:40.825Z,7.6265
2023-04-16T01:00:49.039Z,7.6036
2023-04-16T01:01:57.202Z,7.5897
2023-04-16T01:03:05.276Z,7.5473
2023-04-16T01:04:13.220Z,7.6379
2023-04-16T01:05:21.029Z,7.5734
2023-04-16T01:06:29.229Z,7.3791
2023-04-16T01:07:37.358Z,7.3016
2023-04-16T01:08:45.567Z,7.4300
2023-04-16T01:09:53.435Z,7.5908
2023-04-16T01:11:01.485Z,7.6112
2023-04-16T01:12:09.443Z,7.5141
2023-04-16T01:13:17.609Z,7.5927
2023-04-16T01:14:25.752Z,7.6370
2023-04-16T01:15:33.782Z,7.6396
2023-04-16T01:16:41.997Z,7.4649
2023-04-16T01:17:49.894Z,7.4861
2023-04-16T01:18:57.977Z,7.6154
2023-04-16T01:20:06.018Z,7.6324
2023-04-16T01:21:14.035Z,7.3297
2023-04-16T01:22:22.163Z,7.1218
2023-04-16T01:23:30.136Z,7.2023
2023-04-16T01:24:38.248Z,7.3722
2023-04-16T01:25:46.440Z,7.4023
2023-04-16T01:26:54.387Z,7.4351
2023-04-16T01:28:02.466Z,7.4931
2023-04-16T01:29:10.741Z,7.3974
2023-04-16T01:30:18.653Z,7.3314
2023-04-16T01:31:26.841Z,7.3466
2023-04-16T01:32:34.740Z,7.3606
2023-04-16T01:33:42.633Z,7.3226
2023-04-16T01:34:50.847Z,7.4174
2023-04-16T01:35:58.896Z,7.2652
2023-04-16T01:37:06.877Z,7.3756
2023-04-16T01:38:15.047Z,7.4760
2023-04-16T01:39:23.050Z,7.4729
2023-04-16T01:40:31.138Z,7.2471
2023-04-16T01:41:39.261Z,7.3075
2023-04-16T01:42:47.339Z,7.3140
2023-04-16T01:43:55.334Z,7.2396
2023-04-16T01:45:03.562Z,7.1946
2023-04-16T01:46:11.758Z,7.2360
2023-04-16T01:47:19.548Z,7.2526
2023-04-16T01:48:27.475Z,7.1798
2023-04-16T01:49:35.634Z,7.0745
2023-04-16T01:50:43.807Z,7.1887
2023-04-16T01:51:51.784Z,7.4176
2023-04-16T01:52:59.812Z,7.5277
2023-04-16T01:54:07.796Z,7.5927
2023-04-16T01:55:15.971Z,7.6486
2023-04-16T01:56:24.061Z,7.5713
2023-04-16T01:57:32.052Z,7.4336
2023-04-16T01:58:40.132Z,7.3709
2023-04-16T01:59:48.088Z,7.2501
2023-04-16T02:00:56.327Z,7.4990
2023-04-16T02:02:04.369Z,7.5572
2023-04-16T02:03:12.588Z,7.4344
2023-04-16T02:04:20.469Z,7.4508
2023-04-16T02:05:28.423Z,7.5521
2023-04-16T02:06:36.554Z,7.6654
2023-04-16T02:07:44.705Z,7.7140
2023-04-16T02:08:52.674Z,7.8037
2023-04-16T02:10:00.780Z,7.8229
2023-04-16T02:11:08.765Z,7.6310
2023-04-16T02:12:16.765Z,7.7476
2023-04-16T02:13:24.937Z,7.7810
2023-04-16T02:14:33.127Z,7.7556
2023-04-16T02:15:41.168Z,7.6801
2023-04-16T02:16:49.128Z,7.5196
2023-04-16T02:17:57.291Z,7.3867
2023-04-16T02:19:05.284Z,7.5122
2023-04-16T02:20:13.332Z,7.6181
2023-04-16T02:21:21.404Z,7.5891
2023-04-16T02:22:29.388Z,7.5969
2023-04-16T02:23:37.513Z,7.6373
2023-04-16T02:24:45.717Z,7.6495
2023-04-16T02:25:53.717Z,7.5450
2023-04-16T02:27:01.754Z,7.6083
2023-04-16T02:28:09.844Z,7.6980
2023-04-16T02:29:17.855Z,7.6562
2023-04-16T02:30:25.935Z,7.6495
2023-04-16T02:31:33.989Z,7.5725
2023-04-16T02:32:42.154Z,7.6055
2023-04-16T02:33:50.137Z,7.3819
2023-04-16T02:34:58.028Z,7.3880
2023-04-16T02:36:06.193Z,7.4258
2023-04-16T02:37:14.273Z,7.5608
2023-04-16T02:38:22.356Z,7.5267
2023-04-16T02:39:30.444Z,7.5919
2023-04-16T02:40:38.530Z,7.6160
2023-04-16T02:41:46.564Z,7.4746
2023-04-16T02:42:54.610Z,7.5160
2023-04-16T02:44:02.696Z,7.4809
2023-04-16T02:45:10.851Z,7.4187
2023-04-16T02:46:18.878Z,7.2909
2023-04-16T02:47:26.976Z,7.3972
2023-04-16T02:48:34.818Z,7.4861
2023-04-16T02:49:42.993Z,7.3243
2023-04-16T02:50:51.066Z,7.5473
2023-04-16T02:51:59.145Z,7.6223
2023-04-16T02:53:07.184Z,7.6658
2023-04-16T02:54:15.125Z,7.5782
2023-04-16T02:55:23.309Z,7.4254
2023-04-16T02:56:31.423Z,7.4838
2023-04-16T02:57:39.437Z,7.4948
2023-04-16T02:58:47.528Z,7.3877
2023-04-16T02:59:55.574Z,7.5662
2023-04-16T03:01:03.667Z,7.6829
2023-04-16T03:02:11.960Z,7.7502
2023-04-16T03:03:19.818Z,7.7070
2023-04-16T03:04:28.055Z,7.7052
2023-04-16T03:05:35.744Z,7.7937
2023-04-16T03:06:43.969Z,7.8220
2023-04-16T03:07:52.057Z,7.7350
2023-04-16T03:09:00.067Z,7.6947
2023-04-16T03:10:08.123Z,7.6408
2023-04-16T03:11:16.582Z,7.6165
2023-04-16T03:12:24.272Z,7.5845
2023-04-16T03:13:32.334Z,7.4395
2023-04-16T03:14:40.372Z,7.4275
2023-04-16T03:15:48.466Z,7.4479
2023-04-16T03:16:56.460Z,7.4216
2023-04-16T03:18:04.447Z,7.5164
2023-04-16T03:19:12.693Z,7.5135
2023-04-16T03:20:20.620Z,7.4199
2023-04-16T03:21:28.702Z,7.4758
2023-04-16T03:22:36.858Z,7.4058
2023-04-16T03:23:44.984Z,7.2332
2023-04-16T03:24:53.061Z,7.1836
2023-04-16T03:26:00.983Z,7.2280
2023-04-16T03:27:09.083Z,7.2433
2023-04-16T03:28:17.134Z,7.1130
2023-04-16T03:29:25.212Z,7.0733
2023-04-16T03:30:33.363Z,7.1792
2023-04-16T03:31:41.427Z,7.2257
2023-04-16T03:32:49.384Z,7.2406
2023-04-16T03:33:57.504Z,7.2623
2023-04-16T03:35:05.488Z,7.1275
2023-04-16T03:36:13.675Z,7.2259
2023-04-16T03:37:21.799Z,7.4075
2023-04-16T03:38:29.719Z,7.2812
2023-04-16T03:39:37.742Z,7.2818
2023-04-16T03:40:45.813Z,7.3690
2023-04-16T03:41:53.933Z,7.2496
2023-04-16T03:43:01.835Z,7.1479
2023-04-16T03:44:10.005Z,7.1298
2023-04-16T03:45:18.146Z,7.1292
2023-04-16T03:46:26.146Z,6.9902
2023-04-16T03:47:34.416Z,7.1246
2023-04-16T03:48:42.129Z,7.1807
2023-04-16T03:49:50.329Z,7.3089
2023-04-16T03:50:58.349Z,7.3844
2023-04-16T03:52:06.479Z,7.2389
2023-04-16T03:53:14.576Z,7.2435
2023-04-16T03:54:23.075Z,7.2616
2023-04-16T03:55:30.619Z,7.3207
2023-04-16T03:56:38.841Z,7.1979
2023-04-16T03:57:46.732Z,7.2782
2023-04-16T03:58:54.883Z,7.2692
2023-04-16T04:00:02.741Z,7.3705
2023-04-16T04:01:11.166Z,7.3379
2023-04-16T04:02:19.138Z,7.2862
2023-04-16T04:03:27.385Z,7.3363
2023-04-16T04:04:35.395Z,7.2618
2023-04-16T04:05:43.062Z,7.1878
2023-04-16T04:06:51.285Z,7.2522
2023-04-16T04:07:59.574Z,7.4409
2023-04-16T04:09:07.408Z,7.3552
2023-04-16T04:10:15.527Z,7.2875
2023-04-16T04:11:23.344Z,7.4784
2023-04-16T04:12:31.526Z,7.4880
2023-04-16T04:13:39.725Z,7.4681
2023-04-16T04:14:47.656Z,7.4878
2023-04-16T04:15:55.866Z,7.4531
2023-04-16T04:17:03.800Z,7.4264
2023-04-16T04:18:11.749Z,7.2515
2023-04-16T04:19:19.911Z,7.2581
2023-04-16T04:20:28.091Z,7.2967
2023-04-16T04:21:36.138Z,7.1935
2023-04-16T04:22:44.145Z,7.4054
2023-04-16T04:23:52.328Z,7.3184
2023-04-16T04:25:00.482Z,7.1946
2023-04-16T04:26:08.348Z,7.2524
2023-04-16T04:27:16.525Z,7.2816
2023-04-16T04:28:24.481Z,7.3779
2023-04-16T04:29:32.631Z,7.5206
2023-04-16T04:30:40.597Z,7.4933
2023-04-16T04:31:48.628Z,7.5938
2023-04-16T04:32:57.119Z,7.4174
2023-04-16T04:34:04.731Z,7.3226
2023-04-16T04:35:12.817Z,7.2541
2023-04-16T04:36:20.852Z,7.1660
2023-04-16T04:37:28.937Z,7.3512
2023-04-16T04:38:37.024Z,7.4115
2023-04-16T04:39:45.085Z,7.5137
2023-04-16T04:40:53.187Z,7.5649
2023-04-16T04:42:01.195Z,7.4660
2023-04-16T04:43:09.261Z,7.3875
2023-04-16T04:44:17.404Z,7.3808
2023-04-16T04:45:25.538Z,7.4363
2023-04-16T04:46:33.480Z,7.5116
2023-04-16T04:47:41.540Z,7.5109
2023-04-16T04:48:49.482Z,7.2618
2023-04-16T04:49:57.794Z,7.2961
2023-04-16T04:51:05.729Z,7.3438
2023-04-16T04:52:13.692Z,7.4174
2023-04-16T04:53:21.869Z,7.5256
2023-04-16T04:54:29.931Z,7.5950
2023-04-16T04:55:38.075Z,7.5580
2023-04-16T04:56:46.064Z,7.4907
2023-04-16T04:57:54.108Z,7.4029
2023-04-16T04:59:02.203Z,7.4582
2023-04-16T05:00:10.106Z,7.5958
2023-04-16T05:01:18.553Z,7.7144
2023-04-16T05:02:26.499Z,7.6898
2023-04-16T05:03:34.479Z,7.6534
2023-04-16T05:04:42.515Z,7.6392
2023-04-16T05:05:50.457Z,7.6982
2023-04-16T05:06:58.683Z,7.7504
2023-04-16T05:08:06.691Z,7.7619
2023-04-16T05:09:14.819Z,7.8717
2023-04-16T05:10:22.825Z,7.7169
2023-04-16T05:11:30.768Z,7.5769
2023-04-16T05:12:38.990Z,7.3499
2023-04-16T05:13:47.026Z,7.2829
2023-04-16T05:14:55.108Z,7.4493
2023-04-16T05:16:03.116Z,7.4735
2023-04-16T05:17:11.104Z,7.6022
2023-04-16T05:18:19.322Z,7.6873
2023-04-16T05:19:27.559Z,7.6875
2023-04-16T05:20:35.381Z,7.6921
2023-04-16T05:21:43.465Z,7.7102
2023-04-16T05:22:51.431Z,7.6902
2023-04-16T05:23:59.488Z,7.5986
2023-04-16T05:25:07.633Z,7.5303
2023-04-16T05:26:15.749Z,7.5034
2023-04-16T05:27:23.749Z,7.5771
2023-04-16T05:28:31.963Z,7.6335
2023-04-16T05:29:39.954Z,7.6904
2023-04-16T05:30:48.012Z,7.6854
2023-04-16T05:31:55.929Z,7.6679
2023-04-16T05:33:04.103Z,7.4355
2023-04-16T05:34:12.255Z,7.2658
2023-04-16T05:35:20.332Z,7.2667
2023-04-16T05:36:28.285Z,7.4193
2023-04-16T05:37:36.387Z,7.4968
2023-04-16T05:38:44.424Z,7.5515
2023-04-16T05:39:52.482Z,7.5824
2023-04-16T05:41:00.562Z,7.5858
2023-04-16T05:42:08.629Z,7.6747
2023-04-16T05:43:16.669Z,7.6886
2023-04-16T05:44:24.846Z,7.6251
2023-04-16T05:45:32.863Z,7.6143
2023-04-16T05:46:41.041Z,7.5031
2023-04-16T05:47:48.907Z,7.4027
2023-04-16T05:48:56.889Z,7.3789
2023-04-16T05:50:05.016Z,7.5423
2023-04-16T05:51:13.340Z,7.6453
2023-04-16T05:52:21.278Z,7.5813
2023-04-16T05:53:29.349Z,7.6202
2023-04-16T05:54:37.281Z,7.6894
2023-04-16T05:55:45.213Z,7.7199
2023-04-16T05:56:53.431Z,7.7390
2023-04-16T05:58:01.515Z,7.8014
2023-04-16T05:59:09.711Z,7.7527
2023-04-16T06:00:17.429Z,7.8185
2023-04-16T06:01:25.593Z,7.7436
2023-04-16T06:02:33.862Z,7.6474
2023-04-16T06:03:42.003Z,7.6839
2023-04-16T06:04:49.976Z,7.6471
2023-04-16T06:05:57.993Z,7.6755
2023-04-16T06:07:05.950Z,7.6700
2023-04-16T06:08:14.067Z,7.7569
2023-04-16T06:09:22.134Z,7.6740
2023-04-16T06:10:30.144Z,7.6677
2023-04-16T06:11:38.206Z,7.7426
2023-04-16T06:12:46.283Z,7.7365
2023-04-16T06:13:54.343Z,7.7747
2023-04-16T06:15:02.522Z,7.6825
2023-04-16T06:16:10.495Z,7.7194
2023-04-16T06:17:18.534Z,7.7224
2023-04-16T06:18:26.679Z,7.5897
2023-04-16T06:19:34.908Z,7.6026
2023-04-16T06:20:42.619Z,7.6600
2023-04-16T06:21:50.762Z,7.6503
2023-04-16T06:22:58.859Z,7.6802
2023-04-16T06:24:06.889Z,7.6675
2023-04-16T06:25:16.965Z,7.6864
2023-04-16T06:26:27.786Z,7.6341
2023-04-16T06:27:35.941Z,7.6312
2023-04-16T06:28:43.999Z,7.6196
2023-04-16T06:29:52.185Z,7.6295
2023-04-16T06:31:00.184Z,7.6381
2023-04-16T06:32:08.108Z,7.6448
2023-04-16T06:33:16.117Z,7.6713
2023-04-16T06:34:24.272Z,7.6566
2023-04-16T06:35:32.364Z,7.6446
2023-04-16T06:36:40.426Z,7.7096
2023-04-16T06:37:48.611Z,7.5509
2023-04-16T06:38:56.765Z,7.3432
2023-04-16T06:40:04.623Z,7.4731
2023-04-16T06:41:12.965Z,7.5008
2023-04-16T06:42:20.724Z,7.6078
2023-04-16T06:43:28.846Z,7.6995
2023-04-16T06:44:36.863Z,7.7550
2023-04-16T06:45:44.936Z,7.7052
2023-04-16T06:46:53.008Z,7.4413
2023-04-16T06:48:01.233Z,7.4363
2023-04-16T06:49:09.391Z,7.2980
2023-04-16T06:50:17.183Z,7.3676
2023-04-16T06:51:25.260Z,7.4218
2023-04-16T06:52:33.190Z,7.2625
2023-04-16T06:53:41.347Z,7.4987
2023-04-16T06:54:49.528Z,7.5710
2023-04-16T06:55:57.519Z,7.6341
2023-04-16T06:57:05.590Z,7.5586
2023-04-16T06:58:13.495Z,7.5172
2023-04-16T06:59:21.686Z,7.5448
2023-04-16T07:00:29.799Z,7.6457
2023-04-16T07:01:37.778Z,7.7325
2023-04-16T07:02:45.934Z,7.7827
2023-04-16T07:03:54.092Z,7.7495
2023-04-16T07:05:01.953Z,7.7234
2023-04-16T07:06:10.118Z,7.7056
2023-04-16T07:07:18.255Z,7.6148
2023-04-16T07:08:26.445Z,7.6331
2023-04-16T07:09:34.105Z,7.4371
2023-04-16T07:10:42.311Z,7.1876
2023-04-16T07:11:50.422Z,7.0768
2023-04-16T07:12:58.485Z,7.1807
2023-04-16T07:14:06.521Z,7.3518
2023-04-16T07:15:14.773Z,7.4651
2023-04-16T07:16:22.795Z,7.6450
2023-04-16T07:17:30.795Z,7.4966
2023-04-16T07:18:38.788Z,7.4765
2023-04-16T07:19:46.787Z,7.4495
2023-04-16T07:20:54.883Z,7.5826
2023-04-16T07:22:03.007Z,7.4325
2023-04-16T07:23:11.123Z,7.1742
2023-04-16T07:24:18.937Z,7.2024
2023-04-16T07:25:27.131Z,7.3064
2023-04-16T07:26:35.291Z,7.2021
2023-04-16T07:27:43.261Z,7.2879
2023-04-16T07:28:51.410Z,7.2885
2023-04-16T07:29:59.257Z,7.3070
2023-04-16T07:31:07.593Z,7.2990
2023-04-16T07:32:15.962Z,7.1059
2023-04-16T07:33:23.659Z,7.1853
2023-04-16T07:34:31.789Z,7.3405
2023-04-16T07:35:39.674Z,7.5158
2023-04-16T07:36:47.718Z,7.4254
2023-04-16T07:37:55.954Z,7.3043
2023-04-16T07:39:03.989Z,7.2036
2023-04-16T07:40:12.052Z,7.2488
2023-04-16T07:41:20.214Z,7.2032
2023-04-16T07:42:28.128Z,7.2395
2023-04-16T07:43:36.228Z,7.0483
2023-04-16T07:44:44.267Z,7.0825
2023-04-16T07:45:52.454Z,6.9839
2023-04-16T07:47:00.457Z,6.8483
2023-04-16T07:48:08.325Z,7.0033
2023-04-16T07:49:16.562Z,7.0916
2023-04-16T07:50:24.470Z,7.2091
2023-04-16T07:51:32.824Z,7.1538
2023-04-16T07:52:40.666Z,7.1258
2023-04-16T07:53:48.655Z,7.0268
2023-04-16T07:54:56.883Z,7.2005
2023-04-16T07:56:04.778Z,6.9289
2023-04-16T07:57:12.995Z,6.8326
2023-04-16T07:58:21.049Z,6.9913
2023-04-16T07:59:29.468Z,7.1824
2023-04-16T08:00:37.015Z,7.1794
2023-04-16T08:01:45.072Z,7.1593
2023-04-16T08:02:53.389Z,7.1073
2023-04-16T08:04:01.432Z,7.0047
2023-04-16T08:05:09.435Z,7.0840
2023-04-16T08:06:17.463Z,7.0596
2023-04-16T08:07:25.397Z,7.1969
2023-04-16T08:08:33.632Z,7.2864
2023-04-16T08:09:41.679Z,7.4123
2023-04-16T08:10:49.816Z,7.3585
2023-04-16T08:11:57.832Z,7.4226
2023-04-16T08:13:05.841Z,7.2108
2023-04-16T08:14:13.943Z,7.1504
2023-04-16T08:15:21.952Z,7.1576
2023-04-16T08:16:29.957Z,7.0476
2023-04-16T08:17:38.132Z,7.1555
2023-04-16T08:18:45.976Z,7.2835
2023-04-16T08:19:54.103Z,7.3749
2023-04-16T08:21:02.359Z,7.2984
2023-04-16T08:22:10.337Z,7.4603
2023-04-16T08:23:18.366Z,7.4796
2023-04-16T08:24:26.462Z,7.2841
2023-04-16T08:25:34.546Z,7.4105
2023-04-16T08:26:42.558Z,7.4704
2023-04-16T08:27:50.580Z,7.5057
2023-04-16T08:28:58.733Z,7.3636
2023-04-16T08:30:06.755Z,7.3865
2023-04-16T08:31:14.792Z,7.3190
2023-04-16T08:32:22.874Z,7.2087
2023-04-16T08:33:30.787Z,7.4207
2023-04-16T08:34:39.246Z,7.6156
2023-04-16T08:35:47.007Z,7.6616
2023-04-16T08:36:55.164Z,7.5109
2023-04-16T08:38:03.156Z,7.6682
2023-04-16T08:39:11.295Z,7.7237
2023-04-16T08:40:19.301Z,7.7943
2023-04-16T08:41:27.601Z,7.8594
2023-04-16T08:42:35.416Z,7.6604
2023-04-16T08:43:43.448Z,7.5845
2023-04-16T08:44:51.505Z,7.6419
2023-04-16T08:45:59.536Z,7.5893
2023-04-16T08:47:07.673Z,7.2734
2023-04-16T08:48:15.850Z,7.2065
2023-04-16T08:49:23.775Z,7.1782
2023-04-16T08:50:31.709Z,7.2646
2023-04-16T08:51:39.904Z,7.3039
2023-04-16T08:52:47.949Z,7.2482
2023-04-16T08:53:56.234Z,7.4069
2023-04-16T08:55:04.063Z,7.5300
2023-04-16T08:56:12.099Z,7.5275
2023-04-16T08:57:20.167Z,7.2898
2023-04-16T08:58:28.227Z,7.2576
2023-04-16T08:59:36.330Z,7.2597
2023-04-16T09:00:44.343Z,7.3604
2023-04-16T09:01:52.474Z,7.5061
2023-04-16T09:03:00.412Z,7.5658
2023-04-16T09:04:08.715Z,7.5357
2023-04-16T09:05:16.480Z,7.3793
2023-04-16T09:06:24.725Z,7.4418
2023-04-16T09:07:32.840Z,7.4908
2023-04-16T09:08:40.996Z,7.4306
2023-04-16T09:09:48.845Z,7.4258
2023-04-16T09:10:56.800Z,7.5042
2023-04-16T09:12:04.942Z,7.5893
2023-04-16T09:13:13.165Z,7.6905
2023-04-16T09:14:21.042Z,7.5750
2023-04-16T09:15:29.130Z,7.5738
2023-04-16T09:16:37.412Z,7.5498
2023-04-16T09:17:45.307Z,7.6179
2023-04-16T09:18:53.283Z,7.7157
2023-04-16T09:20:01.453Z,7.6663
2023-04-16T09:21:09.378Z,7.4580
2023-04-16T09:22:17.526Z,7.4817
2023-04-16T09:23:25.535Z,7.5208
2023-04-16T09:24:33.718Z,7.5416
2023-04-16T09:25:41.530Z,7.5109
2023-04-16T09:26:49.719Z,7.6591
2023-04-16T09:27:57.852Z,7.6415
2023-04-16T09:29:05.824Z,7.5801
2023-04-16T09:30:13.882Z,7.6974
2023-04-16T09:31:21.984Z,7.5160
2023-04-16T09:32:30.041Z,7.5208
2023-04-16T09:33:38.111Z,7.6295
2023-04-16T09:34:46.005Z,7.6885
2023-04-16T09:35:54.249Z,7.7079
2023-04-16T09:37:02.139Z,7.6635
2023-04-16T09:38:10.302Z,7.4403
2023-04-16T09:39:18.435Z,7.3472
2023-04-16T09:40:26.540Z,7.3558
2023-04-16T09:41:34.501Z,7.5231
2023-04-16T09:42:42.431Z,7.6101
2023-04-16T09:43:50.622Z,7.5807
2023-04-16T09:45:00.820Z,7.6606
2023-04-16T09:46:11.645Z,7.6341
2023-04-16T09:47:19.677Z,7.5834
2023-04-16T09:48:27.698Z,7.4828
2023-04-16T09:49:35.801Z,7.5961
2023-04-16T09:50:43.873Z,7.7560
2023-04-16T09:51:51.890Z,7.7018
2023-04-16T09:52:59.945Z,7.8525
2023-04-16T09:54:08.089Z,7.8187
2023-04-16T09:55:16.074Z,7.8370
2023-04-16T09:56:24.192Z,7.8473
2023-04-16T09:57:32.253Z,7.8267
2023-04-16T09:58:40.226Z,7.7914
2023-04-16T09:59:48.322Z,7.7749
2023-04-16T10:00:56.421Z,8.0163
2023-04-16T10:02:14.343Z,7.9179
2023-04-16T10:03:17.311Z,7.8004
2023-04-16T10:04:25.429Z,8.0014
2023-04-16T10:05:33.549Z,8.1285
2023-04-16T10:06:41.611Z,7.8506
2023-04-16T10:07:49.670Z,7.7743
2023-04-16T10:08:57.839Z,8.0100
2023-04-16T10:10:05.721Z,7.8782
2023-04-16T10:11:13.901Z,7.9929
2023-04-16T10:12:21.820Z,8.1334
2023-04-16T10:13:29.941Z,8.0386
2023-04-16T10:14:37.925Z,8.1092
2023-04-16T10:15:45.906Z,8.0091
2023-04-16T10:16:54.169Z,8.1271
2023-04-16T10:18:02.216Z,8.2528
2023-04-16T10:19:10.418Z,8.0951
2023-04-16T10:20:18.340Z,8.0728
2023-04-16T10:21:26.474Z,7.9089
2023-04-16T10:22:34.392Z,8.0045
2023-04-16T10:23:42.480Z,7.9992
2023-04-16T10:24:50.560Z,7.9316
2023-04-16T10:25:58.588Z,7.9494
2023-04-16T10:27:06.653Z,8.1744
2023-04-16T10:28:14.689Z,8.2340
2023-04-16T10:29:22.641Z,8.2460
2023-04-16T10:30:30.866Z,8.4604
2023-04-16T10:31:38.896Z,8.2979
2023-04-16T10:32:46.936Z,8.1744
2023-04-16T10:33:55.045Z,8.0907
2023-04-16T10:35:03.099Z,8.2408
2023-04-16T10:36:11.411Z,8.5040
2023-04-16T10:37:19.129Z,8.4752
2023-04-16T10:38:27.270Z,8.6263
2023-04-16T10:39:35.318Z,8.6650
2023-04-16T10:40:43.231Z,8.6963
2023-04-16T10:41:51.431Z,8.6334
2023-04-16T10:42:59.508Z,8.5243
2023-04-16T10:44:07.569Z,8.2736
2023-04-16T10:45:15.591Z,8.1819
2023-04-16T10:46:23.777Z,8.4737
2023-04-16T10:47:31.892Z,8.8499
2023-04-16T10:48:49.924Z,8.6915
2023-04-16T10:49:52.728Z,8.4050
2023-04-16T10:51:00.764Z,8.5824
2023-04-16T10:52:08.864Z,8.9178
2023-04-16T10:53:16.908Z,8.8884
2023-04-16T10:54:24.951Z,8.8516
2023-04-16T10:55:32.875Z,8.9546
2023-04-16T10:56:41.178Z,8.8840
2023-04-16T10:57:49.157Z,8.5376
2023-04-16T10:58:57.244Z,8.5815
2023-04-16T11:00:05.099Z,8.5700
2023-04-16T11:01:13.434Z,8.5796
2023-04-16T11:02:21.548Z,8.6191
2023-04-16T11:03:29.492Z,8.9096
2023-04-16T11:04:37.704Z,9.0759
2023-04-16T11:05:45.521Z,8.9033
2023-04-16T11:06:53.462Z,8.8531
2023-04-16T11:08:01.647Z,8.8767
2023-04-16T11:09:09.907Z,8.6549
2023-04-16T11:10:17.803Z,8.7322
2023-04-16T11:11:25.774Z,8.7699
2023-04-16T11:12:33.854Z,8.7829
2023-04-16T11:13:43.501Z,8.7474
2023-04-16T11:14:49.919Z,8.7787
2023-04-16T11:15:58.113Z,8.8451
2023-04-16T11:17:06.092Z,8.8392
2023-04-16T11:18:14.179Z,8.7604
2023-04-16T11:19:22.085Z,8.8432
2023-04-16T11:20:30.273Z,8.7505
2023-04-16T11:21:38.389Z,9.1131
2023-04-16T11:22:46.420Z,8.8973
2023-04-16T11:23:54.336Z,8.5216
2023-04-16T11:25:02.513Z,8.5468
2023-04-16T11:26:10.613Z,8.6988
2023-04-16T11:27:18.562Z,8.5626
2023-04-16T11:28:26.833Z,8.8184
2023-04-16T11:29:34.781Z,8.8579
2023-04-16T11:30:42.820Z,8.8371
2023-04-16T11:31:50.997Z,8.7470
2023-04-16T11:32:59.035Z,8.6893
2023-04-16T11:34:07.027Z,8.7402
2023-04-16T11:35:15.072Z,8.7915
2023-04-16T11:36:24.794Z,8.7341
2023-04-16T11:37:36.085Z,8.7208
2023-04-16T11:38:44.187Z,8.8151
2023-04-16T11:39:52.281Z,8.9067
2023-04-16T11:41:00.311Z,8.9342
2023-04-16T11:42:08.412Z,9.0768
2023-04-16T11:43:16.525Z,9.0753
2023-04-16T11:44:24.548Z,8.9698
2023-04-16T11:45:32.684Z,8.8386
2023-04-16T11:46:40.724Z,8.5828
2023-04-16T11:47:48.736Z,8.5481
2023-04-16T11:48:57.006Z,8.7783
2023-04-16T11:50:04.919Z,8.8169
2023-04-16T11:51:12.739Z,8.7648
2023-04-16T11:52:20.950Z,8.8022
2023-04-16T11:53:29.045Z,8.9715
2023-04-16T11:54:37.001Z,9.0490
2023-04-16T11:55:45.183Z,9.1543
2023-04-16T11:56:53.164Z,9.1831
2023-04-16T11:58:01.259Z,9.1287
2023-04-16T11:59:09.539Z,9.2594
2023-04-16T12:00:17.237Z,9.3421
2023-04-16T12:01:25.455Z,9.2700
2023-04-16T12:02:33.616Z,9.1077
2023-04-16T12:03:41.847Z,9.2273
2023-04-16T12:04:49.578Z,9.2868
2023-04-16T12:05:57.649Z,9.4001
2023-04-16T12:07:05.764Z,9.4535
2023-04-16T12:08:13.639Z,9.0557
2023-04-16T12:09:21.838Z,8.7915
2023-04-16T12:10:29.859Z,8.7055
2023-04-16T12:11:37.973Z,8.8546
2023-04-16T12:12:46.194Z,9.0660
2023-04-16T12:13:54.051Z,9.0177
2023-04-16T12:15:02.126Z,8.9143
2023-04-16T12:16:10.225Z,9.2130
2023-04-16T12:17:18.275Z,9.3513
2023-04-16T12:18:26.361Z,9.4442
2023-04-16T12:19:34.378Z,9.4862
2023-04-16T12:20:42.437Z,9.5123
2023-04-16T12:21:50.517Z,9.6452
2023-04-16T12:22:58.498Z,9.6162
2023-04-16T12:24:06.648Z,9.6433
2023-04-16T12:25:14.579Z,9.6891
2023-04-16T12:26:22.777Z,9.6937
2023-04-16T12:27:30.786Z,9.6317
2023-04-16T12:28:38.815Z,9.5167
2023-04-16T12:29:46.952Z,9.5872
2023-04-16T12:30:54.974Z,9.4881
2023-04-16T12:32:03.016Z,9.1564
2023-04-16T12:33:11.147Z,8.9326
2023-04-16T12:34:19.003Z,9.2094
2023-04-16T12:35:27.252Z,9.4810
2023-04-16T12:36:35.235Z,9.6450
2023-04-16T12:37:43.307Z,9.6723
2023-04-16T12:38:51.376Z,9.7238
2023-04-16T12:39:59.572Z,9.7026
2023-04-16T12:41:07.532Z,9.7892
2023-04-16T12:42:15.561Z,9.8861
2023-04-16T12:43:23.620Z,9.9907
2023-04-16T12:44:31.669Z,9.7709
2023-04-16T12:45:39.725Z,9.4945
2023-04-16T12:46:47.895Z,9.3763
2023-04-16T12:47:55.970Z,9.6708
2023-04-16T12:49:04.029Z,9.7318
2023-04-16T12:50:11.930Z,9.7484
2023-04-16T12:51:20.049Z,9.5422
2023-04-16T12:52:28.146Z,9.4684
2023-04-16T12:53:36.168Z,9.2044
2023-04-16T12:54:44.207Z,9.3183
2023-04-16T12:55:52.260Z,9.1951
2023-04-16T12:57:00.464Z,9.4230
2023-04-16T12:58:09.775Z,9.5342
2023-04-16T12:59:16.322Z,9.2052
2023-04-16T13:00:24.491Z,9.4066
2023-04-16T13:01:32.578Z,9.6521
2023-04-16T13:02:40.829Z,9.7284
2023-04-16T13:03:48.924Z,9.8541
2023-04-16T13:04:56.706Z,9.8665
2023-04-16T13:06:04.679Z,9.8907
2023-04-16T13:07:13.021Z,9.7368
2023-04-16T13:08:20.932Z,9.7213
2023-04-16T13:09:29.084Z,9.7551
2023-04-16T13:10:37.035Z,9.7065
2023-04-16T13:11:45.108Z,9.7442
2023-04-16T13:12:53.221Z,9.8402
2023-04-16T13:14:01.189Z,9.7871
2023-04-16T13:15:09.304Z,9.8425
2023-04-16T13:16:17.393Z,9.7728
2023-04-16T13:17:25.269Z,9.6973
2023-04-16T13:18:33.563Z,9.8026
2023-04-16T13:19:41.493Z,9.9418
2023-04-16T13:20:49.577Z,9.9403
2023-04-16T13:21:57.585Z,9.9376
2023-04-16T13:23:05.630Z,9.8537
2023-04-16T13:24:13.721Z,9.6820
2023-04-16T13:25:21.643Z,9.6990
2023-04-16T13:26:29.862Z,9.6893
2023-04-16T13:27:37.899Z,9.5186
2023-04-16T13:28:46.071Z,9.6241
2023-04-16T13:29:53.958Z,9.6969
2023-04-16T13:31:05.064Z,9.6756
2023-04-16T13:32:14.894Z,9.5634
2023-04-16T13:33:23.032Z,9.3852
2023-04-16T13:34:31.075Z,9.2273
2023-04-16T13:35:39.069Z,9.1545
2023-04-16T13:36:47.138Z,9.1941
2023-04-16T13:37:55.283Z,9.2216
2023-04-16T13:39:03.284Z,9.1505
2023-04-16T13:40:11.412Z,9.2100
2023-04-16T13:41:19.458Z,9.2109
2023-04-16T13:42:27.473Z,9.3395
2023-04-16T13:43:35.578Z,9.3980
2023-04-16T13:44:43.538Z,9.4837
2023-04-16T13:45:51.608Z,9.6243
2023-04-16T13:46:59.806Z,9.7437
2023-04-16T13:48:07.796Z,9.7543
2023-04-16T13:49:16.068Z,9.7719
2023-04-16T13:50:23.849Z,9.7620
2023-04-16T13:51:31.876Z,9.5674
2023-04-16T13:52:40.029Z,9.6471
2023-04-16T13:53:48.035Z,9.7126
2023-04-16T13:54:57.417Z,9.8074
2023-04-16T13:56:04.226Z,9.8947
2023-04-16T13:57:12.137Z,10.0437
2023-04-16T13:58:20.323Z,10.1997
2023-04-16T13:59:28.363Z,10.0988
2023-04-16T14:00:36.371Z,9.9109
2023-04-16T14:01:44.354Z,10.0887
2023-04-16T14:02:52.612Z,10.1350
2023-04-16T14:04:00.609Z,10.0248
2023-04-16T14:05:08.593Z,9.8856
2023-04-16T14:06:16.733Z,9.6372
2023-04-16T14:07:24.855Z,9.6260
2023-04-16T14:08:32.803Z,9.6477
2023-04-16T14:09:40.736Z,9.5340